createdAt,value
2023-01-13T00:02:08.564Z,4.92
2023-01-13T00:07:04.784Z,4.55
2023-01-13T00:12:01.060Z,4.08
2023-01-13T00:16:57.304Z,3.67
2023-01-13T00:21:54.560Z,4.3
2023-01-13T00:26:51.984Z,4.53
2023-01-13T00:31:49.103Z,4.47
2023-01-13T00:36:46.365Z,4.48
2023-01-13T00:41:43.605Z,4.28
2023-01-13T00:46:40.913Z,4.41
2023-01-13T00:51:38.094Z,4.44
2023-01-13T00:56:40.081Z,4.49
2023-01-13T01:01:36.773Z,4.78
2023-01-13T01:06:36.870Z,5.38
2023-01-13T01:11:34.151Z,4.88
2023-01-13T01:16:30.473Z,4.8
2023-01-13T01:21:30.612Z,5.54
2023-01-13T01:26:27.892Z,5.46
2023-01-13T01:31:25.163Z,5.1
2023-01-13T01:36:22.406Z,4.73
2023-01-13T01:41:19.649Z,5.61
2023-01-13T01:46:15.975Z,4.85
2023-01-13T01:51:12.243Z,5.4
2023-01-13T01:56:10.437Z,5.38
2023-01-13T02:01:06.888Z,5.4
2023-01-13T02:06:02.972Z,5.23
2023-01-13T02:11:00.216Z,5.24
2023-01-13T02:16:06.471Z,5.24
2023-01-13T02:21:17.684Z,5.29
2023-01-13T02:26:29.902Z,5.6
2023-01-13T02:31:32.193Z,5.82
2023-01-13T02:36:37.394Z,5.86
2023-01-13T02:41:38.609Z,5.83
2023-01-13T02:46:43.861Z,5.66
2023-01-13T02:51:43.129Z,5.49
2023-01-13T02:56:41.365Z,4.95
2023-01-13T03:01:36.716Z,5.2
2023-01-13T03:06:43.900Z,5.49
2023-01-13T03:11:46.152Z,5.74
2023-01-13T03:16:53.398Z,5.38
2023-01-13T03:21:54.599Z,5.96
2023-01-13T03:27:00.860Z,6.09
2023-01-13T03:32:03.103Z,6.2
2023-01-13T03:37:02.321Z,6.07
2023-01-13T03:42:01.565Z,5.9
2023-01-13T03:47:04.810Z,5.93
2023-01-13T03:52:05.095Z,6.06
2023-01-13T03:57:06.337Z,7.14
2023-01-13T04:02:07.736Z,7.06
2023-01-13T04:07:12.823Z,6.86
2023-01-13T04:12:14.061Z,7.2
2023-01-13T04:17:10.303Z,7.27
2023-01-13T04:22:06.589Z,6.73
2023-01-13T04:27:02.858Z,6.59
2023-01-13T04:31:59.100Z,6.38
2023-01-13T04:36:55.362Z,7.17
2023-01-13T04:41:50.638Z,7.12
2023-01-13T04:46:46.892Z,6.5
2023-01-13T04:51:42.132Z,6.14
2023-01-13T04:56:37.402Z,6.66
2023-01-13T05:01:33.876Z,6.49
2023-01-13T05:06:29.937Z,6.66
2023-01-13T05:11:26.175Z,6.76
2023-01-13T05:16:22.511Z,6.42
2023-01-13T05:21:18.704Z,6.84
2023-01-13T05:26:13.957Z,6.46
2023-01-13T05:31:10.217Z,6.98
2023-01-13T05:36:06.468Z,6.7
2023-01-13T05:41:01.728Z,6.53
2023-01-13T05:45:59.007Z,7.27
2023-01-13T05:50:54.273Z,7.27
2023-01-13T05:55:49.590Z,7.1
2023-01-13T06:00:45.781Z,7.33
2023-01-13T06:05:42.064Z,7.34
2023-01-13T06:10:39.284Z,7.79
2023-01-13T06:15:35.578Z,7.14
2023-01-13T06:20:32.862Z,6.7
2023-01-13T06:25:34.065Z,7.28
2023-01-13T06:30:32.373Z,7.11
2023-01-13T06:40:37.789Z,7.74
2023-01-13T06:45:33.083Z,7.71
2023-01-13T06:50:29.357Z,7.55
2023-01-13T06:55:25.571Z,7.46
2023-01-13T07:00:22.870Z,7.26
2023-01-13T07:05:19.093Z,6.96
2023-01-13T07:10:15.361Z,7.72
2023-01-13T07:15:11.622Z,7.06
2023-01-13T07:20:07.894Z,6.39
2023-01-13T07:25:04.170Z,6.85
2023-01-13T07:30:00.412Z,6.17
2023-01-13T07:34:55.687Z,6.46
2023-01-13T07:39:51.942Z,6.57
2023-01-13T07:44:48.212Z,6.95
2023-01-13T07:49:43.467Z,7.06
2023-01-13T07:54:41.080Z,6.56
2023-01-13T07:59:37.060Z,7.19
2023-01-13T08:04:33.223Z,8.04
2023-01-13T08:09:28.499Z,6.79
2023-01-13T08:14:26.739Z,6.74
2023-01-13T08:19:23.013Z,6.76
2023-01-13T08:24:20.241Z,6.25
2023-01-13T08:29:16.512Z,6.53
2023-01-13T08:34:12.751Z,6.58
2023-01-13T08:39:09.221Z,6.53
2023-01-13T08:44:05.265Z,6.61
2023-01-13T08:49:01.565Z,6.88
2023-01-13T08:53:56.843Z,7.16
2023-01-13T08:58:53.075Z,7.46
2023-01-13T09:03:49.875Z,7.61
2023-01-13T09:08:45.621Z,7.81
2023-01-13T09:13:43.892Z,7.61
2023-01-13T09:18:40.085Z,7.62
2023-01-13T09:23:36.349Z,7.55
2023-01-13T09:28:32.607Z,7.52
2023-01-13T09:33:28.900Z,7.27
2023-01-13T09:38:25.176Z,7.5
2023-01-13T09:43:28.870Z,8.43
2023-01-13T09:48:29.828Z,8.16
2023-01-13T09:53:28.908Z,8.5
2023-01-13T09:58:25.168Z,8.84
2023-01-13T10:08:37.640Z,8.54
2023-01-13T10:13:38.917Z,8.25
2023-01-13T10:18:44.080Z,8.5
2023-01-13T10:22:46.607Z,8.97
2023-01-13T10:27:48.738Z,8.43
2023-01-13T10:32:47.008Z,8.81
2023-01-13T10:37:53.274Z,9.26
2023-01-13T10:42:55.514Z,8.86
2023-01-13T10:47:58.737Z,8.93
2023-01-13T10:52:58.964Z,9.23
2023-01-13T10:57:56.249Z,10.22
2023-01-13T11:03:09.438Z,10.53
2023-01-13T11:08:12.790Z,10.74
2023-01-13T11:13:15.963Z,10.7
2023-01-13T11:18:18.164Z,9.91
2023-01-13T11:23:18.542Z,9.69
2023-01-13T11:28:20.706Z,10.16
2023-01-13T11:33:28.915Z,10.28
2023-01-13T11:38:31.157Z,10
2023-01-13T11:43:33.389Z,10.37
2023-01-13T11:48:32.680Z,10.08
2023-01-13T11:53:43.915Z,10.04
2023-01-13T11:59:00.067Z,10.52
2023-01-13T12:04:05.308Z,10.63
2023-01-13T12:09:15.515Z,11.87
2023-01-13T12:14:19.807Z,12.12
2023-01-13T12:19:26.981Z,12.09
2023-01-13T12:24:33.259Z,10.69
2023-01-13T12:29:34.581Z,10.62
2023-01-13T12:34:41.767Z,10.79
2023-01-13T12:39:47.982Z,10.32
2023-01-13T12:44:54.349Z,9.82
2023-01-13T12:49:53.424Z,9.48
2023-01-13T12:55:00.704Z,9.25
2023-01-13T13:00:14.897Z,9.15
2023-01-13T13:05:25.163Z,9.11
2023-01-13T13:10:28.347Z,9
2023-01-13T13:15:32.602Z,9.09
2023-01-13T13:20:38.850Z,9.29
2023-01-13T13:25:49.100Z,8.76
2023-01-13T13:30:54.342Z,8.85
2023-01-13T13:36:04.504Z,9.14
2023-01-13T13:41:09.776Z,9.05
2023-01-13T13:46:11.068Z,9.06
2023-01-13T13:51:13.259Z,8.7
2023-01-13T13:56:16.180Z,8.72
2023-01-13T14:01:20.918Z,8.42
2023-01-13T14:06:21.957Z,8.37
2023-01-13T14:11:23.219Z,8.25
2023-01-13T14:16:20.455Z,7.95
2023-01-13T14:21:23.685Z,7.94
2023-01-13T14:26:23.922Z,7.89
2023-01-13T14:31:20.209Z,7.76
2023-01-13T14:36:30.454Z,7.57
2023-01-13T14:41:27.627Z,7.8
2023-01-13T14:46:31.938Z,7.59
2023-01-13T14:51:30.116Z,7.48
2023-01-13T14:56:37.369Z,7.3
2023-01-13T15:01:42.759Z,7.5
2023-01-13T15:06:45.854Z,7.36
2023-01-13T15:11:47.071Z,7.2
2023-01-13T15:16:46.355Z,7.26
2023-01-13T15:21:42.598Z,7.09
2023-01-13T15:33:01.949Z,6.98
2023-01-13T15:37:58.215Z,7.11
2023-01-13T15:42:54.432Z,7.23
2023-01-13T15:47:51.686Z,7.03
2023-01-13T15:52:54.899Z,6.92
2023-01-13T15:57:56.350Z,6.94
2023-01-13T16:02:52.520Z,7.72
2023-01-13T16:07:50.690Z,6.93
2023-01-13T16:12:55.939Z,6.91
2023-01-13T16:17:55.205Z,6.42
2023-01-13T16:22:52.486Z,6.96
2023-01-13T16:27:54.712Z,6.84
2023-01-13T16:32:50.989Z,6.93
2023-01-13T16:37:51.246Z,7.12
2023-01-13T16:42:51.890Z,6.86
2023-01-13T16:47:48.822Z,6.97
2023-01-13T16:52:45.071Z,6.73
2023-01-13T16:57:43.310Z,6.91
2023-01-13T17:02:42.507Z,7.24
2023-01-13T17:07:39.809Z,7.09
2023-01-13T17:12:36.005Z,6.95
2023-01-13T17:17:32.292Z,6.41
2023-01-13T17:22:28.583Z,6.61
2023-01-13T17:27:25.807Z,6.98
2023-01-13T17:32:26.100Z,6.74
2023-01-13T17:37:22.372Z,6.75
2023-01-13T17:42:19.657Z,6.72
2023-01-13T17:47:16.524Z,6.94
2023-01-13T17:52:13.118Z,6.97
2023-01-13T17:57:09.334Z,6.66
2023-01-13T18:02:06.931Z,6.99
2023-01-13T18:07:04.726Z,6.92
2023-01-13T18:12:01.113Z,7.1
2023-01-13T18:17:02.464Z,7.06
2023-01-13T18:21:58.635Z,6.88
2023-01-13T18:26:54.995Z,6.79
2023-01-13T18:31:51.173Z,6.84
2023-01-13T18:36:49.376Z,6.78
2023-01-13T18:41:45.653Z,6.82
2023-01-13T18:46:41.964Z,6.83
2023-01-13T18:51:38.333Z,6.43
2023-01-13T18:56:34.448Z,6.34
2023-01-13T19:01:32.815Z,6.46
2023-01-13T19:06:33.758Z,5.81
2023-01-13T19:11:34.246Z,5.86
2023-01-13T19:16:36.522Z,6.31
2023-01-13T19:21:32.762Z,5.82
2023-01-13T19:26:29.970Z,5.94
2023-01-13T19:31:31.268Z,6.2
2023-01-13T19:36:27.452Z,6.14
2023-01-13T19:41:24.715Z,6.06
2023-01-13T19:46:22.215Z,6.24
2023-01-13T19:51:19.258Z,5.99
2023-01-13T19:56:16.529Z,5.98
2023-01-13T20:01:12.830Z,6.25
2023-01-13T20:06:09.037Z,6.56
2023-01-13T20:11:05.271Z,6.51
2023-01-13T20:16:04.508Z,6.47
2023-01-13T20:21:05.795Z,6.58
2023-01-13T20:26:02.048Z,6.58
2023-01-13T20:30:59.571Z,7.09
2023-01-13T20:35:56.603Z,6.67
2023-01-13T20:40:57.796Z,6.93
2023-01-13T20:45:55.081Z,7.35
2023-01-13T20:50:52.334Z,7.18
2023-01-13T21:00:59.968Z,6.83
2023-01-13T21:05:57.092Z,6.57
2023-01-13T21:10:58.324Z,6.64
2023-01-13T21:15:54.558Z,6.3
2023-01-13T21:20:50.838Z,6.39
2023-01-13T21:25:51.096Z,6.25
2023-01-13T21:30:47.361Z,6.49
2023-01-13T21:35:43.644Z,6.9
2023-01-13T21:40:40.856Z,7.03
2023-01-13T21:45:38.204Z,7.15
2023-01-13T21:50:41.389Z,7.22
2023-01-13T21:55:37.617Z,6.99
2023-01-13T22:00:33.899Z,6.83
2023-01-13T22:05:30.158Z,6.81
2023-01-13T22:10:28.403Z,6.89
2023-01-13T22:15:24.941Z,6.68
2023-01-13T22:20:20.928Z,6.83
2023-01-13T22:25:18.165Z,6.79
2023-01-13T22:30:15.444Z,6.75
2023-01-13T22:35:12.665Z,6.67
2023-01-13T22:40:09.986Z,6.87
2023-01-13T22:45:06.213Z,6.78
2023-01-13T22:50:02.554Z,6.98
2023-01-13T22:54:58.707Z,6.95
2023-01-13T22:59:54.998Z,7.44
2023-01-13T23:04:51.352Z,7.82
2023-01-13T23:09:47.511Z,7.38
2023-01-13T23:14:43.757Z,7.3
2023-01-13T23:19:41.042Z,7.27
2023-01-13T23:24:37.286Z,7.04
2023-01-13T23:29:35.522Z,6.85
2023-01-13T23:34:31.776Z,7.18
2023-01-13T23:39:30.225Z,7.37
2023-01-13T23:44:31.290Z,7.07
2023-01-13T23:49:27.543Z,7.11
2023-01-13T23:54:23.803Z,7.19
2023-01-13T23:59:20.103Z,6.94
